Time;durP1;ratioP1;P1;durP2;ratioP2;P2;SDS_P1;SDS_P2;PMS_P1;PMS_P2;Temp;Humidity;BMP_temperature;BMP_pressure;BME280_temperature;BME280_humidity;BME280_pressure;Samples;Min_cycle;Max_cycle;Signal;HPM_P1;HPM_P2
2022/08/27 00:02:11;;;;;;;36.83;32.83;;;20.60;99.90;;;;;;5073633;28;20638;-75
2022/08/27 00:04:50;;;;;;;34.83;30.87;;;20.60;99.90;;;;;;5073172;28;20707;-74
2022/08/27 00:07:17;;;;;;;35.13;31.60;;;20.50;99.90;;;;;;5074370;28;20605;-75
2022/08/27 00:09:43;;;;;;;35.80;32.10;;;20.40;99.90;;;;;;5074329;28;20575;-74
2022/08/27 00:12:17;;;;;;;34.60;30.57;;;20.40;99.90;;;;;;5074519;28;20567;-74
2022/08/27 00:14:43;;;;;;;36.00;32.30;;;20.50;99.90;;;;;;5075070;28;20578;-75
2022/08/27 00:17:10;;;;;;;36.43;32.40;;;20.50;99.90;;;;;;5074082;28;20585;-74
2022/08/27 00:19:37;;;;;;;35.00;31.37;;;20.60;99.90;;;;;;5072786;28;20617;-74
2022/08/27 00:22:05;;;;;;;38.90;34.90;;;20.50;99.90;;;;;;5073198;28;20699;-74
2022/08/27 00:24:32;;;;;;;40.57;34.80;;;20.50;99.90;;;;;;5073884;28;20673;-74
2022/08/27 00:26:58;;;;;;;39.97;35.10;;;20.60;99.90;;;;;;5074312;28;20578;-75
2022/08/27 00:29:25;;;;;;;37.50;33.50;;;20.70;99.90;;;;;;5074466;28;20571;-75
2022/08/27 00:31:52;;;;;;;37.87;33.80;;;20.60;99.90;;;;;;5074096;28;20609;-75
2022/08/27 00:34:20;;;;;;;38.23;33.30;;;20.50;99.90;;;;;;5073100;28;21136;-75
2022/08/27 00:36:47;;;;;;;37.97;34.10;;;20.50;99.90;;;;;;5074060;28;20601;-75
2022/08/27 00:39:14;;;;;;;39.67;31.73;;;20.60;99.90;;;;;;5073613;28;20634;-75
2022/08/27 00:41:42;;;;;;;35.43;31.73;;;20.60;99.90;;;;;;5074419;28;20582;-75
2022/08/27 00:44:09;;;;;;;38.47;32.67;;;20.70;99.90;;;;;;5073766;28;20606;-75
2022/08/27 00:46:49;;;;;;;40.30;34.40;;;20.70;99.90;;;;;;5074183;28;20636;-75
2022/08/27 00:49:42;;;;;;;35.10;31.57;;;20.70;99.90;;;;;;5075227;28;20541;-75
2022/08/27 00:52:23;;;;;;;38.97;35.00;;;20.60;99.90;;;;;;5076262;28;20578;-75
2022/08/27 00:54:53;;;;;;;40.30;33.77;;;20.30;99.90;;;;;;5075648;28;20976;-76
2022/08/27 00:57:20;;;;;;;36.90;33.43;;;20.30;99.90;;;;;;5073346;28;20590;-75
2022/08/27 00:59:46;;;;;;;37.47;33.57;;;20.40;99.90;;;;;;5073937;28;20567;-75
2022/08/27 01:02:19;;;;;;;37.13;33.50;;;20.50;99.90;;;;;;5073826;28;21228;-75
2022/08/27 01:04:53;;;;;;;39.13;34.70;;;20.40;99.90;;;;;;5073682;28;20649;-75
2022/08/27 01:07:21;;;;;;;40.30;36.13;;;20.40;99.90;;;;;;5073571;28;20545;-75
2022/08/27 01:09:48;;;;;;;40.57;36.37;;;20.10;99.90;;;;;;5073453;28;20579;-75
2022/08/27 01:12:15;;;;;;;42.13;37.00;;;20.20;99.90;;;;;;5073948;28;20611;-75
2022/08/27 01:14:44;;;;;;;40.70;35.90;;;20.10;99.90;;;;;;5073871;28;20575;-75
2022/08/27 01:17:11;;;;;;;40.17;35.97;;;20.00;99.90;;;;;;5073548;28;21186;-75
2022/08/27 01:19:49;;;;;;;39.50;35.20;;;20.10;99.90;;;;;;5073940;28;20972;-74
2022/08/27 01:22:49;;;;;;;39.77;35.40;;;20.10;99.90;;;;;;5073798;28;20634;-74
2022/08/27 01:25:18;;;;;;;40.77;36.43;;;20.00;99.90;;;;;;5073714;28;20619;-75
2022/08/27 01:27:46;;;;;;;38.97;34.20;;;19.90;99.90;;;;;;5073073;28;21008;-75
2022/08/27 01:30:17;;;;;;;39.90;35.43;;;20.00;99.90;;;;;;5073548;28;20625;-75
2022/08/27 01:32:44;;;;;;;39.50;35.37;;;20.00;99.90;;;;;;5073440;28;20557;-75
2022/08/27 01:35:12;;;;;;;37.83;33.93;;;20.10;99.90;;;;;;5073191;28;20553;-75
2022/08/27 01:37:40;;;;;;;37.63;33.47;;;20.10;99.90;;;;;;5073445;28;20614;-75
2022/08/27 01:40:07;;;;;;;40.60;35.87;;;20.10;99.90;;;;;;5073531;28;20579;-74
2022/08/27 01:42:38;;;;;;;38.53;34.40;;;20.10;99.90;;;;;;5073525;28;20650;-76
2022/08/27 01:45:23;;;;;;;40.40;35.80;;;20.00;99.90;;;;;;5074944;28;20728;-75
2022/08/27 01:47:50;;;;;;;39.27;35.27;;;20.20;99.90;;;;;;5076736;28;20596;-76
2022/08/27 01:50:22;;;;;;;38.27;33.90;;;20.20;99.90;;;;;;5076771;28;20567;-76
2022/08/27 01:52:50;;;;;;;38.57;32.57;;;20.20;99.90;;;;;;5077132;28;20921;-76
2022/08/27 01:55:19;;;;;;;35.90;31.97;;;20.10;99.90;;;;;;5076834;28;20581;-75
2022/08/27 01:57:46;;;;;;;37.73;33.80;;;20.00;99.90;;;;;;5076419;28;21161;-75
2022/08/27 02:00:17;;;;;;;37.30;33.00;;;20.00;99.90;;;;;;5076927;28;20967;-76
2022/08/27 02:02:44;;;;;;;40.93;34.73;;;20.10;99.90;;;;;;5076716;28;20687;-76
2022/08/27 02:05:11;;;;;;;38.20;34.20;;;20.10;99.90;;;;;;5076284;28;21044;-76
2022/08/27 02:07:39;;;;;;;36.13;32.30;;;20.10;99.90;;;;;;5075052;28;20628;-75
2022/08/27 02:10:09;;;;;;;39.47;32.80;;;20.10;99.90;;;;;;5076189;28;20625;-76
2022/08/27 02:12:36;;;;;;;35.60;32.00;;;20.00;99.90;;;;;;5076380;28;20574;-75
2022/08/27 02:15:04;;;;;;;36.43;32.43;;;20.00;99.90;;;;;;5076396;28;20904;-76
2022/08/27 02:17:31;;;;;;;31.67;28.30;;;20.00;99.90;;;;;;5076864;28;20867;-75
2022/08/27 02:19:58;;;;;;;34.10;29.60;;;20.00;99.90;;;;;;5076730;28;20632;-75
2022/08/27 02:22:25;;;;;;;31.87;28.87;;;20.00;99.90;;;;;;5076431;28;20630;-75
2022/08/27 02:24:52;;;;;;;33.90;30.20;;;19.90;99.90;;;;;;5076391;28;20767;-75
2022/08/27 02:27:20;;;;;;;36.30;31.10;;;19.90;99.90;;;;;;5076443;28;20642;-76
2022/08/27 02:29:46;;;;;;;40.93;31.60;;;20.00;99.90;;;;;;5075854;28;20671;-76
2022/08/27 02:32:13;;;;;;;33.57;29.93;;;20.10;99.90;;;;;;5075773;28;20618;-76
2022/08/27 02:34:40;;;;;;;33.07;28.97;;;20.10;99.90;;;;;;5075925;28;20744;-75
2022/08/27 02:37:07;;;;;;;31.67;28.57;;;20.20;99.90;;;;;;5075319;28;20578;-76
2022/08/27 02:39:34;;;;;;;31.00;28.03;;;20.20;99.90;;;;;;5091042;28;20653;-75
2022/08/27 02:42:00;;;;;;;33.63;28.30;;;20.30;99.90;;;;;;5076340;28;20594;-75
2022/08/27 02:44:27;;;;;;;30.37;27.07;;;20.30;99.90;;;;;;5075995;28;21188;-75
2022/08/27 02:46:53;;;;;;;30.70;27.63;;;20.30;99.90;;;;;;5075036;28;20579;-76
2022/08/27 02:49:19;;;;;;;31.77;27.80;;;20.30;99.90;;;;;;5074998;28;20566;-76
2022/08/27 02:51:46;;;;;;;30.67;27.67;;;20.30;99.90;;;;;;5075885;28;20578;-75
2022/08/27 02:54:13;;;;;;;33.60;30.00;;;20.30;99.90;;;;;;5075474;28;20575;-75
2022/08/27 02:56:39;;;;;;;29.47;26.77;;;20.20;99.90;;;;;;5074473;28;21004;-76
2022/08/27 02:59:06;;;;;;;32.87;28.77;;;20.30;99.90;;;;;;5074306;28;21024;-75
2022/08/27 03:01:32;;;;;;;29.87;26.77;;;20.20;99.90;;;;;;5075440;28;20590;-76
2022/08/27 03:03:59;;;;;;;31.03;27.97;;;20.10;99.90;;;;;;5074770;28;20674;-76
2022/08/27 03:06:26;;;;;;;28.27;25.63;;;20.10;99.90;;;;;;5075306;28;20614;-76
2022/08/27 03:08:52;;;;;;;27.07;24.50;;;20.20;99.90;;;;;;5075393;28;20590;-76
2022/08/27 03:11:21;;;;;;;34.67;26.63;;;20.20;99.90;;;;;;5075802;28;20570;-74
2022/08/27 03:13:48;;;;;;;29.10;26.37;;;20.20;99.90;;;;;;5075102;28;20713;-75
2022/08/27 03:16:15;;;;;;;27.10;24.63;;;20.30;99.90;;;;;;5073989;28;20632;-76
2022/08/27 03:18:41;;;;;;;29.40;26.50;;;20.30;99.90;;;;;;5090401;28;20630;-76
2022/08/27 03:21:08;;;;;;;28.07;25.47;;;20.40;99.90;;;;;;5074829;28;20567;-75
2022/08/27 03:23:34;;;;;;;26.60;24.00;;;20.40;99.90;;;;;;5074767;28;20642;-76
2022/08/27 03:26:04;;;;;;;28.37;25.33;;;20.40;99.90;;;;;;5074974;28;21129;-75
2022/08/27 03:28:34;;;;;;;26.80;24.37;;;20.40;99.90;;;;;;5074757;28;20626;-76
2022/08/27 03:31:05;;;;;;;26.53;23.87;;;20.40;99.90;;;;;;5073178;28;21168;-76
2022/08/27 03:33:34;;;;;;;28.20;25.63;;;20.50;99.90;;;;;;5074983;28;20595;-74
2022/08/27 03:36:01;;;;;;;27.20;24.37;;;20.50;99.90;;;;;;5074976;28;21197;-75
2022/08/27 03:38:31;;;;;;;27.73;25.20;;;20.50;99.90;;;;;;5073674;28;20681;-76
2022/08/27 03:40:58;;;;;;;27.33;24.43;;;20.60;99.90;;;;;;5074354;28;20734;-76
2022/08/27 03:43:24;;;;;;;30.27;26.33;;;20.50;99.90;;;;;;5074360;28;20637;-76
2022/08/27 03:45:51;;;;;;;29.00;26.10;;;20.50;99.90;;;;;;5089735;28;20606;-75
2022/08/27 03:48:18;;;;;;;28.30;25.53;;;20.40;99.90;;;;;;5073512;28;20556;-74
2022/08/27 03:50:47;;;;;;;28.10;25.60;;;20.30;99.90;;;;;;5074309;28;20610;-74
2022/08/27 03:53:16;;;;;;;28.60;25.70;;;20.30;99.90;;;;;;5074802;28;20579;-76
2022/08/27 03:55:43;;;;;;;29.40;26.60;;;20.40;99.90;;;;;;5074164;28;20613;-75
2022/08/27 03:58:11;;;;;;;28.10;25.17;;;20.40;99.90;;;;;;5074319;28;20614;-74
2022/08/27 04:00:39;;;;;;;28.83;25.93;;;20.30;99.90;;;;;;5074291;28;20583;-74
2022/08/27 04:03:06;;;;;;;28.80;26.20;;;20.20;99.90;;;;;;5074273;28;20626;-74
2022/08/27 04:05:34;;;;;;;29.10;26.50;;;20.20;99.90;;;;;;5073733;28;20642;-74
2022/08/27 04:08:01;;;;;;;27.20;24.53;;;20.30;99.90;;;;;;5072448;28;20583;-74
2022/08/27 04:10:27;;;;;;;29.43;26.47;;;20.30;99.90;;;;;;5074014;28;20621;-74
2022/08/27 04:12:54;;;;;;;29.50;26.60;;;20.30;99.90;;;;;;5073922;28;20618;-74
2022/08/27 04:15:20;;;;;;;29.00;26.23;;;20.20;99.90;;;;;;5073904;28;20589;-74
2022/08/27 04:17:46;;;;;;;28.13;25.20;;;20.30;99.90;;;;;;5089142;28;21168;-74
2022/08/27 04:20:13;;;;;;;29.80;26.77;;;20.30;99.90;;;;;;5073528;28;20594;-75
2022/08/27 04:22:40;;;;;;;27.50;24.60;;;20.30;99.90;;;;;;5072382;28;20661;-75
2022/08/27 04:25:07;;;;;;;28.00;25.37;;;20.40;99.90;;;;;;5073743;28;20646;-74
2022/08/27 04:27:34;;;;;;;27.33;24.80;;;20.30;99.90;;;;;;5072772;28;21152;-75
2022/08/27 04:30:02;;;;;;;29.30;25.87;;;20.30;99.90;;;;;;5089160;28;20618;-75
2022/08/27 04:32:29;;;;;;;25.90;23.43;;;20.20;99.90;;;;;;5073727;28;20614;-74
2022/08/27 04:34:57;;;;;;;27.13;24.27;;;20.30;99.90;;;;;;5073787;28;21013;-75
2022/08/27 04:37:25;;;;;;;29.20;25.90;;;20.30;99.90;;;;;;5073726;28;20617;-75
2022/08/27 04:39:51;;;;;;;28.30;24.87;;;20.40;99.90;;;;;;5073784;28;20979;-75
2022/08/27 04:42:21;;;;;;;25.80;23.33;;;20.40;99.90;;;;;;5072811;28;20578;-74
2022/08/27 04:44:47;;;;;;;27.97;24.87;;;20.40;99.90;;;;;;5072217;28;21169;-74
2022/08/27 04:47:15;;;;;;;27.40;24.43;;;20.50;99.90;;;;;;5073728;28;20579;-74
2022/08/27 04:49:42;;;;;;;27.73;24.77;;;20.60;99.90;;;;;;5073654;28;20718;-74
2022/08/27 04:52:09;;;;;;;26.33;23.80;;;20.70;99.90;;;;;;5074172;28;20970;-74
2022/08/27 04:54:36;;;;;;;28.53;24.73;;;20.60;99.90;;;;;;5072232;28;20622;-75
2022/08/27 04:57:04;;;;;;;27.37;24.77;;;20.60;99.90;;;;;;5073382;28;20667;-74
2022/08/27 04:59:31;;;;;;;32.40;25.73;;;20.60;99.90;;;;;;5072103;28;20645;-74
2022/08/27 05:02:00;;;;;;;26.50;24.00;;;20.60;99.90;;;;;;5073300;28;21141;-74
2022/08/27 05:04:28;;;;;;;29.37;26.43;;;20.40;99.90;;;;;;5073281;28;20666;-74
2022/08/27 05:06:55;;;;;;;29.80;26.70;;;20.30;99.90;;;;;;5073715;28;20601;-74
2022/08/27 05:09:22;;;;;;;32.47;27.20;;;20.30;99.90;;;;;;5073532;28;20574;-74
2022/08/27 05:11:50;;;;;;;31.87;28.63;;;20.30;99.90;;;;;;5073737;28;21100;-74
2022/08/27 05:14:18;;;;;;;32.37;28.93;;;20.20;99.90;;;;;;5073627;28;20594;-74
2022/08/27 05:16:46;;;;;;;31.50;28.50;;;20.10;99.90;;;;;;5074035;28;20652;-75
2022/08/27 05:19:13;;;;;;;29.57;26.77;;;20.10;99.90;;;;;;5074172;28;20618;-75
2022/08/27 05:21:45;;;;;;;32.50;29.20;;;20.10;99.90;;;;;;5077333;28;20622;-75
2022/08/27 05:24:13;;;;;;;32.50;29.03;;;20.10;99.90;;;;;;5076983;28;20650;-75
2022/08/27 05:26:39;;;;;;;31.77;28.50;;;20.20;99.90;;;;;;5077517;28;20632;-76
2022/08/27 05:29:06;;;;;;;31.27;28.07;;;20.20;99.90;;;;;;5077197;28;20582;-76
2022/08/27 05:31:34;;;;;;;31.13;28.17;;;20.40;99.90;;;;;;5077361;28;20630;-76
2022/08/27 05:34:01;;;;;;;31.73;28.63;;;20.40;99.90;;;;;;5077058;28;20621;-75
2022/08/27 05:36:30;;;;;;;30.77;27.70;;;20.40;99.90;;;;;;5077258;28;20570;-75
2022/08/27 05:39:00;;;;;;;32.43;28.93;;;20.40;99.90;;;;;;5075512;28;20622;-76
2022/08/27 05:41:29;;;;;;;29.00;26.30;;;20.50;99.90;;;;;;5076992;28;20585;-75
2022/08/27 05:44:00;;;;;;;30.10;27.10;;;20.50;99.90;;;;;;5076491;28;20630;-75
2022/08/27 05:46:28;;;;;;;29.17;26.47;;;20.50;99.90;;;;;;5076325;28;21140;-76
2022/08/27 05:48:59;;;;;;;30.63;27.73;;;20.60;99.90;;;;;;5076155;28;20621;-75
2022/08/27 05:51:35;;;;;;;31.00;28.00;;;20.50;99.90;;;;;;5076286;28;20659;-75
2022/08/27 05:54:05;;;;;;;29.40;26.60;;;20.50;99.90;;;;;;5076004;28;20621;-75
2022/08/27 05:56:35;;;;;;;29.97;26.97;;;20.40;99.90;;;;;;5076457;28;20575;-75
2022/08/27 06:01:50;;;;;;;30.73;27.43;;;20.40;99.90;;;;;;5076324;28;21128;-76
2022/08/27 06:04:19;;;;;;;29.47;26.70;;;20.60;99.90;;;;;;5075552;28;20670;-75
2022/08/27 06:06:46;;;;;;;29.17;26.37;;;20.70;99.90;;;;;;5076151;28;20626;-76
2022/08/27 06:09:16;;;;;;;28.50;25.80;;;20.80;99.90;;;;;;5076682;28;20676;-75
2022/08/27 06:11:44;;;;;;;25.27;22.67;;;20.80;99.90;;;;;;5076469;28;20571;-76
2022/08/27 06:14:11;;;;;;;22.20;20.00;;;20.80;99.90;;;;;;5076405;28;20618;-76
2022/08/27 06:16:39;;;;;;;23.40;21.00;;;20.80;99.90;;;;;;5075819;28;20575;-75
2022/08/27 06:19:08;;;;;;;27.00;21.23;;;20.80;99.90;;;;;;5074398;28;20633;-75
2022/08/27 06:21:34;;;;;;;24.63;20.13;;;20.80;99.90;;;;;;5076166;28;20575;-75
2022/08/27 06:24:01;;;;;;;23.20;19.73;;;20.90;99.90;;;;;;5074479;28;20670;-76
2022/08/27 06:26:28;;;;;;;21.37;19.17;;;20.90;99.90;;;;;;5076492;28;20613;-76
2022/08/27 06:28:54;;;;;;;24.10;20.77;;;20.90;99.90;;;;;;5075854;28;20650;-75
2022/08/27 06:31:26;;;;;;;23.83;20.80;;;20.80;99.90;;;;;;5090286;28;20615;-76
2022/08/27 06:33:58;;;;;;;20.67;18.77;;;20.90;99.90;;;;;;5076651;28;21240;-76
2022/08/27 06:36:25;;;;;;;20.60;18.80;;;20.90;99.90;;;;;;5077569;28;20579;-76
2022/08/27 06:38:53;;;;;;;21.40;19.33;;;20.80;99.90;;;;;;5059244;28;20614;-76
2022/08/27 06:41:22;;;;;;;24.10;19.83;;;20.80;99.90;;;;;;5075895;28;20578;-76
2022/08/27 06:43:48;;;;;;;21.40;19.20;;;20.80;99.90;;;;;;5075802;28;20641;-76
2022/08/27 06:46:17;;;;;;;21.80;19.60;;;20.80;99.90;;;;;;5075307;28;21113;-76
2022/08/27 06:48:45;;;;;;;22.10;20.20;;;20.80;99.90;;;;;;5075695;28;20643;-76
2022/08/27 06:51:18;;;;;;;23.20;21.00;;;20.80;99.90;;;;;;5075515;28;20614;-76
2022/08/27 06:53:46;;;;;;;25.17;21.80;;;20.80;99.90;;;;;;5075647;28;20587;-76
2022/08/27 06:56:16;;;;;;;24.33;21.73;;;20.80;99.90;;;;;;5074561;28;20578;-76
2022/08/27 06:58:44;;;;;;;22.63;20.53;;;20.80;99.90;;;;;;5074011;28;20614;-74
2022/08/27 07:01:26;;;;;;;24.70;22.43;;;20.80;99.90;;;;;;5073317;28;20680;-72
2022/08/27 07:04:00;;;;;;;24.97;22.37;;;20.70;99.90;;;;;;5074466;28;20677;-72
2022/08/27 07:06:29;;;;;;;23.67;21.37;;;20.70;99.90;;;;;;5075815;28;20575;-72
2022/08/27 07:08:56;;;;;;;24.00;21.50;;;20.60;99.90;;;;;;5075005;28;20586;-72
2022/08/27 07:11:23;;;;;;;24.30;21.80;;;20.50;99.90;;;;;;5072753;28;20618;-72
2022/08/27 07:13:50;;;;;;;25.10;22.73;;;20.60;99.90;;;;;;5074270;28;20622;-72
2022/08/27 07:16:19;;;;;;;27.20;24.30;;;20.60;99.90;;;;;;5074666;28;20621;-72
2022/08/27 07:18:47;;;;;;;24.57;22.30;;;20.60;99.90;;;;;;5074414;28;20579;-72
2022/08/27 07:21:14;;;;;;;26.47;23.83;;;20.60;99.90;;;;;;5074494;28;20593;-72
2022/08/27 07:23:40;;;;;;;36.57;25.00;;;20.60;99.90;;;;;;5074119;28;20718;-72
2022/08/27 07:26:09;;;;;;;27.60;24.70;;;20.60;99.90;;;;;;5074409;28;20609;-72
2022/08/27 07:28:36;;;;;;;28.93;26.13;;;20.60;99.90;;;;;;5074347;28;20647;-72
2022/08/27 07:31:05;;;;;;;27.37;24.77;;;20.60;99.90;;;;;;5073952;28;21144;-72
2022/08/27 07:33:31;;;;;;;27.10;24.50;;;20.60;99.90;;;;;;5072940;28;20954;-72
2022/08/27 07:35:58;;;;;;;30.17;27.17;;;20.50;99.90;;;;;;5071852;28;20976;-72
2022/08/27 07:38:24;;;;;;;28.03;24.13;;;20.70;99.90;;;;;;5073738;28;20667;-72
2022/08/27 07:40:51;;;;;;;26.90;24.40;;;20.80;99.90;;;;;;5073883;28;20622;-72
2022/08/27 07:46:04;;;;;;;28.43;25.33;;;20.80;99.90;;;;;;5074007;28;20571;-72
2022/08/27 07:48:34;;;;;;;27.57;24.80;;;20.70;99.90;;;;;;5073938;28;20622;-72
2022/08/27 07:51:04;;;;;;;26.30;23.90;;;20.70;99.90;;;;;;5072101;28;20625;-71
2022/08/27 07:53:33;;;;;;;26.83;24.13;;;20.70;99.90;;;;;;5074247;28;21032;-71
2022/08/27 07:56:05;;;;;;;28.47;25.63;;;20.70;99.90;;;;;;5088994;28;20630;-72
2022/08/27 07:58:32;;;;;;;27.97;25.50;;;20.60;99.90;;;;;;5073475;28;21117;-70
2022/08/27 08:01:04;;;;;;;29.03;26.10;;;20.70;99.90;;;;;;5073551;28;20622;-72
2022/08/27 08:03:31;;;;;;;28.73;25.70;;;20.60;99.90;;;;;;5073525;28;20642;-72
2022/08/27 08:06:06;;;;;;;29.13;26.03;;;20.60;99.90;;;;;;5073584;28;20574;-72
2022/08/27 08:08:34;;;;;;;30.80;27.80;;;20.50;99.90;;;;;;5073787;28;20574;-73
2022/08/27 08:11:06;;;;;;;28.67;25.83;;;20.40;99.90;;;;;;5073213;28;20671;-72
2022/08/27 08:13:35;;;;;;;31.40;28.40;;;20.30;99.90;;;;;;5072318;28;20584;-72
2022/08/27 08:16:02;;;;;;;30.90;27.80;;;20.30;99.90;;;;;;5073479;28;20574;-72
2022/08/27 08:18:29;;;;;;;30.10;26.97;;;20.20;99.90;;;;;;5071598;28;20610;-72
2022/08/27 08:21:04;;;;;;;31.70;28.70;;;20.20;99.90;;;;;;5073148;28;20586;-72
2022/08/27 08:23:32;;;;;;;31.53;28.50;;;20.20;99.90;;;;;;5073265;28;20633;-72
2022/08/27 08:25:59;;;;;;;28.97;26.00;;;20.10;99.90;;;;;;5071336;28;20625;-71
2022/08/27 08:28:28;;;;;;;29.90;26.90;;;20.10;99.90;;;;;;5072890;28;20628;-71
2022/08/27 08:30:56;;;;;;;30.97;27.77;;;20.00;99.90;;;;;;5072324;28;20607;-72
2022/08/27 08:33:24;;;;;;;28.97;25.83;;;19.90;99.90;;;;;;5071223;28;20991;-72
2022/08/27 08:35:50;;;;;;;40.20;29.30;;;19.90;99.90;;;;;;5073251;28;20593;-72
2022/08/27 08:38:18;;;;;;;41.07;30.90;;;19.80;99.90;;;;;;5073132;28;21214;-72
2022/08/27 08:40:49;;;;;;;31.80;27.90;;;19.70;99.90;;;;;;5072812;28;20641;-71
2022/08/27 08:43:34;;;;;;;29.30;26.20;;;19.70;99.90;;;;;;5072563;28;21017;-71
2022/08/27 08:46:16;;;;;;;30.73;26.30;;;19.70;99.90;;;;;;5072680;28;21184;-71
2022/08/27 08:48:51;;;;;;;30.83;24.80;;;19.80;99.90;;;;;;5073210;28;20938;-72
2022/08/27 08:51:31;;;;;;;44.67;33.07;;;19.70;99.90;;;;;;5073033;28;20571;-72
2022/08/27 08:54:08;;;;;;;33.40;29.60;;;19.70;99.90;;;;;;5073398;28;20590;-72
2022/08/27 08:57:17;;;;;;;35.70;29.53;;;19.80;99.90;;;;;;5077085;28;20629;-71
2022/08/27 08:59:50;;;;;;;39.83;30.40;;;19.90;99.90;;;;;;5015294;28;20640;-72
2022/08/27 09:02:17;;;;;;;31.37;28.10;;;19.80;99.90;;;;;;5070507;28;20626;-72
2022/08/27 09:04:43;;;;;;;31.10;28.07;;;19.80;99.90;;;;;;5076948;28;20661;-72
2022/08/27 09:07:13;;;;;;;43.73;31.90;;;19.80;99.90;;;;;;5076892;28;20574;-71
2022/08/27 09:10:18;;;;;;;32.77;28.23;;;19.80;99.90;;;;;;5076992;28;20582;-72
2022/08/27 09:12:44;;;;;;;32.40;28.27;;;19.80;99.90;;;;;;5066162;28;20632;-71
2022/08/27 09:15:20;;;;;;;29.97;26.97;;;19.90;99.90;;;;;;5076584;28;20674;-72
2022/08/27 09:17:47;;;;;;;29.97;26.90;;;19.90;99.90;;;;;;5076724;28;20621;-72
2022/08/27 09:20:20;;;;;;;30.53;27.27;;;19.90;99.90;;;;;;5076644;28;20608;-72
2022/08/27 09:22:53;;;;;;;36.03;28.37;;;19.90;99.90;;;;;;5076421;28;20585;-72
2022/08/27 09:25:24;;;;;;;30.00;26.80;;;19.90;99.90;;;;;;5075072;28;20711;-72
2022/08/27 09:27:54;;;;;;;37.20;29.57;;;19.80;99.90;;;;;;5075217;28;20617;-70
2022/08/27 09:30:25;;;;;;;33.53;29.93;;;19.90;99.90;;;;;;5075274;28;21037;-71
2022/08/27 09:33:03;;;;;;;32.30;29.00;;;19.80;99.90;;;;;;5076877;28;20570;-72
2022/08/27 09:35:43;;;;;;;34.90;28.10;;;19.80;99.90;;;;;;5076726;28;20582;-71
2022/08/27 09:38:17;;;;;;;28.30;25.40;;;19.90;99.90;;;;;;5076861;28;20578;-72
2022/08/27 09:40:49;;;;;;;30.50;27.50;;;20.00;99.90;;;;;;5076662;28;21109;-72
2022/08/27 09:43:16;;;;;;;28.87;25.97;;;20.10;99.90;;;;;;5076457;28;20582;-72
2022/08/27 09:45:48;;;;;;;29.67;26.60;;;20.10;99.90;;;;;;5076350;28;20669;-72
2022/08/27 09:48:19;;;;;;;30.00;26.97;;;20.00;99.90;;;;;;5076395;28;20570;-72
2022/08/27 09:50:49;;;;;;;30.30;26.97;;;20.00;99.90;;;;;;5076368;28;20571;-72
2022/08/27 09:53:19;;;;;;;31.37;28.20;;;19.90;99.90;;;;;;5074438;28;20614;-72
2022/08/27 09:55:53;;;;;;;31.43;28.13;;;20.00;99.90;;;;;;5075961;28;21097;-72
2022/08/27 09:58:27;;;;;;;30.37;27.37;;;19.90;99.90;;;;;;5076215;28;20570;-72
2022/08/27 10:01:19;;;;;;;33.23;28.30;;;19.80;99.90;;;;;;5075903;28;20614;-71
2022/08/27 10:03:46;;;;;;;35.43;30.50;;;19.60;99.90;;;;;;5075836;28;20630;-71
2022/08/27 10:06:12;;;;;;;32.37;29.20;;;19.60;99.90;;;;;;5075693;28;21019;-71
2022/08/27 10:08:49;;;;;;;36.07;29.97;;;19.50;99.90;;;;;;5075840;28;21167;-72
2022/08/27 10:11:24;;;;;;;34.50;30.60;;;19.50;99.90;;;;;;5075571;28;20621;-73
2022/08/27 10:13:56;;;;;;;37.00;33.20;;;19.50;99.90;;;;;;5058145;28;20612;-71
2022/08/27 10:16:49;;;;;;;36.63;32.73;;;19.40;99.90;;;;;;5076064;28;20587;-73
2022/08/27 10:19:35;;;;;;;40.17;33.60;;;19.40;99.90;;;;;;5075596;28;20670;-72
2022/08/27 10:22:31;;;;;;;37.27;32.50;;;19.50;99.90;;;;;;5073783;28;20634;-72
2022/08/27 10:25:03;;;;;;;38.40;32.30;;;19.50;99.90;;;;;;5045495;28;20668;-72
2022/08/27 10:27:41;;;;;;;35.53;31.87;;;19.50;99.90;;;;;;5075637;28;20942;-72
2022/08/27 10:30:12;;;;;;;41.33;33.43;;;19.50;99.90;;;;;;5075819;28;20574;-72
2022/08/27 10:33:00;;;;;;;35.43;31.17;;;19.60;99.90;;;;;;5075749;28;20571;-72
2022/08/27 10:35:30;;;;;;;33.33;29.80;;;19.70;99.90;;;;;;5074219;28;20757;-72
2022/08/27 10:38:17;;;;;;;29.70;26.43;;;19.70;99.90;;;;;;5075592;28;21109;-72
2022/08/27 10:40:49;;;;;;;33.63;29.90;;;19.70;99.90;;;;;;5073765;28;20610;-71
2022/08/27 10:43:21;;;;;;;31.13;27.63;;;19.80;99.90;;;;;;5075958;28;20570;-72
2022/08/27 10:46:04;;;;;;;32.90;29.50;;;19.70;99.90;;;;;;5075789;28;20601;-72
2022/08/27 10:48:38;;;;;;;32.80;28.80;;;19.80;99.90;;;;;;5073984;28;20554;-72
2022/08/27 10:51:28;;;;;;;30.60;27.50;;;19.80;99.90;;;;;;5075476;28;20643;-72
2022/08/27 10:54:10;;;;;;;32.20;28.77;;;19.70;99.90;;;;;;5074752;28;20607;-72
2022/08/27 10:57:06;;;;;;;35.10;29.60;;;19.90;99.90;;;;;;5073348;28;20634;-72
2022/08/27 10:59:49;;;;;;;32.07;28.63;;;19.90;99.90;;;;;;5051223;28;20953;-71
2022/08/27 11:02:32;;;;;;;31.20;27.90;;;19.90;99.90;;;;;;5075035;28;21211;-72
2022/08/27 11:05:22;;;;;;;28.40;25.53;;;19.90;99.90;;;;;;5074657;28;20673;-71
2022/08/27 11:08:11;;;;;;;31.77;27.20;;;20.10;99.90;;;;;;5073096;28;20618;-71
2022/08/27 11:10:44;;;;;;;31.97;27.10;;;20.20;99.90;;;;;;5077500;28;20618;-72
2022/08/27 11:13:35;;;;;;;29.43;26.27;;;20.20;99.90;;;;;;5074497;28;20571;-72
2022/08/27 11:16:10;;;;;;;29.60;26.40;;;20.20;99.90;;;;;;5074512;28;20614;-72
2022/08/27 11:18:48;;;;;;;29.60;26.63;;;20.20;99.90;;;;;;5074252;28;20887;-72
2022/08/27 11:21:42;;;;;;;30.53;25.30;;;20.40;99.90;;;;;;5072527;28;20622;-72
2022/08/27 11:24:30;;;;;;;28.57;25.60;;;20.30;99.90;;;;;;5074608;28;20669;-72
2022/08/27 11:27:02;;;;;;;28.00;25.20;;;20.20;99.90;;;;;;5074563;28;20617;-72
2022/08/27 11:29:47;;;;;;;28.73;25.20;;;20.30;99.90;;;;;;5074294;28;20586;-72
2022/08/27 11:32:33;;;;;;;29.00;25.67;;;20.30;99.90;;;;;;5074072;28;20571;-72
2022/08/27 11:35:10;;;;;;;26.70;23.73;;;20.40;99.90;;;;;;5046701;28;20626;-72
2022/08/27 11:37:59;;;;;;;30.83;27.60;;;20.70;99.90;;;;;;5074089;28;20552;-72
2022/08/27 11:41:14;;;;;;;27.73;24.93;;;20.70;99.90;;;;;;5074302;28;21124;-71
2022/08/27 11:43:43;;;;;;;28.10;25.20;;;20.90;99.90;;;;;;5011960;28;20625;-71
2022/08/27 11:46:10;;;;;;;28.77;25.70;;;20.80;99.90;;;;;;5068034;28;20626;-71
2022/08/27 11:48:53;;;;;;;30.63;25.83;;;20.60;99.90;;;;;;5073986;28;20583;-71
2022/08/27 11:51:33;;;;;;;32.47;25.43;;;20.50;99.90;;;;;;5073747;28;20578;-71
2022/08/27 11:54:24;;;;;;;32.00;28.57;;;20.60;99.90;;;;;;5073652;28;21121;-72
2022/08/27 11:56:51;;;;;;;30.07;26.43;;;20.60;99.90;;;;;;5073356;28;20644;-72
2022/08/27 11:59:26;;;;;;;29.57;25.73;;;20.70;99.90;;;;;;5073909;28;20618;-72
2022/08/27 12:01:56;;;;;;;27.70;24.87;;;20.90;99.90;;;;;;5073560;28;21133;-72
2022/08/27 12:04:35;;;;;;;32.40;26.00;;;21.00;99.90;;;;;;5070658;28;20673;-71
2022/08/27 12:07:17;;;;;;;28.90;26.10;;;21.20;99.90;;;;;;5073486;28;20570;-71
2022/08/27 12:09:53;;;;;;;31.57;24.87;;;21.10;99.90;;;;;;5073236;28;20602;-72
2022/08/27 12:12:27;;;;;;;28.00;24.93;;;21.00;99.90;;;;;;5073210;28;20618;-72
2022/08/27 12:15:21;;;;;;;27.57;24.87;;;20.90;99.90;;;;;;5073453;28;20587;-72
2022/08/27 12:18:16;;;;;;;28.17;25.33;;;20.90;99.90;;;;;;5073234;28;20713;-70
2022/08/27 12:21:05;;;;;;;30.53;27.40;;;20.80;99.90;;;;;;5059937;28;20645;-73
2022/08/27 12:23:49;;;;;;;29.20;26.30;;;20.90;99.90;;;;;;5073088;28;20586;-72
2022/08/27 12:26:19;;;;;;;31.80;26.27;;;20.80;99.90;;;;;;5073251;28;20931;-72
2022/08/27 12:28:45;;;;;;;29.37;25.67;;;20.80;99.90;;;;;;5072934;28;20577;-72
2022/08/27 12:31:20;;;;;;;30.00;26.97;;;20.80;99.90;;;;;;5073391;28;20577;-72
2022/08/27 12:33:50;;;;;;;28.37;25.60;;;20.90;99.90;;;;;;5072650;28;20613;-73
2022/08/27 12:36:24;;;;;;;27.83;24.93;;;21.20;99.90;;;;;;5073545;28;20579;-71
2022/08/27 12:38:54;;;;;;;27.67;24.77;;;21.20;99.90;;;;;;5073212;28;21112;-71
2022/08/27 12:41:38;;;;;;;29.83;26.40;;;21.40;99.90;;;;;;5073421;28;20570;-71
2022/08/27 12:44:12;;;;;;;30.40;27.17;;;21.30;99.90;;;;;;5071434;28;20634;-71
2022/08/27 12:46:50;;;;;;;28.53;25.93;;;21.50;99.90;;;;;;5073045;28;20660;-71
2022/08/27 12:49:26;;;;;;;36.67;33.00;;;21.80;99.90;;;;;;5072929;28;20614;-71
2022/08/27 12:51:54;;;;;;;36.57;32.70;;;21.70;99.90;;;;;;5072747;28;20624;-71
2022/08/27 12:54:45;;;;;;;34.80;31.40;;;21.80;99.90;;;;;;5073303;28;20643;-72
2022/08/27 12:57:42;;;;;;;27.43;24.83;;;22.00;99.90;;;;;;5073068;28;20622;-72